Time;durP1;ratioP1;P1;durP2;ratioP2;P2;SDS_P1;SDS_P2;PMS_P1;PMS_P2;Temp;Humidity;BMP_temperature;BMP_pressure;BME280_temperature;BME280_humidity;BME280_pressure;Samples;Min_cycle;Max_cycle;Signal;HPM_P1;HPM_P2
2022/12/25 00:00:06;;;;;;;;;;;10.40;99.70;;;;;;5093880;28;19908;-50
2022/12/25 00:02:32;;;;;;;;;;;10.40;99.60;;;;;;5093586;28;19916;-50
2022/12/25 00:04:58;;;;;;;;;;;10.40;99.30;;;;;;5093855;28;19966;-51
2022/12/25 00:07:23;;;;;;;;;;;10.40;99.60;;;;;;5094057;28;19915;-52
2022/12/25 00:09:49;;;;;;;;;;;10.40;99.50;;;;;;5073706;28;20385;-53
2022/12/25 00:12:14;;;;;;;;;;;10.50;99.50;;;;;;5075611;28;19931;-51
2022/12/25 00:14:40;;;;;;;;;;;10.40;99.10;;;;;;5092557;28;19939;-50
2022/12/25 00:17:05;;;;;;;;;;;10.40;99.40;;;;;;5092772;28;20010;-56
2022/12/25 00:19:31;;;;;;;;;;;10.40;99.40;;;;;;5093332;28;19915;-51
2022/12/25 00:21:56;;;;;;;;;;;10.40;99.40;;;;;;5093654;28;19915;-53
2022/12/25 00:24:22;;;;;;;;;;;10.40;99.20;;;;;;5093220;28;20010;-51
2022/12/25 00:26:48;;;;;;;;;;;10.30;99.40;;;;;;5093692;28;19933;-56
2022/12/25 00:29:13;;;;;;;;;;;10.30;99.40;;;;;;5093311;28;19908;-50
2022/12/25 00:31:39;;;;;;;;;;;10.30;99.40;;;;;;5093552;28;19915;-50
2022/12/25 00:34:04;;;;;;;;;;;10.30;99.20;;;;;;5093275;28;19908;-52
2022/12/25 00:36:30;;;;;;;;;;;10.30;99.40;;;;;;5093251;28;19914;-53
2022/12/25 00:38:55;;;;;;;;;;;10.30;99.50;;;;;;5074926;28;19993;-49
2022/12/25 00:42:17;;;;;;;;;;;10.30;99.50;;;;;;5093652;28;19961;-50
2022/12/25 00:44:08;;;;;;;;;;;10.30;99.30;;;;;;5091454;28;19915;-51
2022/12/25 00:46:34;;;;;;;;;;;10.30;99.60;;;;;;5092079;28;19912;-50
2022/12/25 00:49:00;;;;;;;;;;;10.30;99.60;;;;;;5091875;28;19908;-51
2022/12/25 00:51:26;;;;;;;;;;;10.30;99.70;;;;;;5073505;28;19958;-51
2022/12/25 00:53:51;;;;;;;;;;;10.30;99.40;;;;;;5091599;28;19916;-50
2022/12/25 00:56:17;;;;;;;;;;;10.30;99.50;;;;;;5074311;28;19912;-51
2022/12/25 00:58:42;;;;;;;;;;;10.30;99.50;;;;;;5073625;28;19964;-51
2022/12/25 01:01:09;;;;;;;;;;;10.30;99.50;;;;;;5092847;28;19931;-54
2022/12/25 01:03:34;;;;;;;;;;;10.20;99.50;;;;;;5092636;28;19908;-55
2022/12/25 01:06:01;;;;;;;;;;;10.20;99.70;;;;;;5092739;28;20050;-50
2022/12/25 01:08:28;;;;;;;;;;;10.20;99.70;;;;;;5092109;28;19908;-54
2022/12/25 01:10:57;;;;;;;;;;;10.20;99.60;;;;;;5092722;28;19908;-52
2022/12/25 01:13:23;;;;;;;;;;;10.20;99.30;;;;;;5092503;28;19912;-53
2022/12/25 01:15:51;;;;;;;;;;;10.20;99.50;;;;;;5092537;28;19908;-53
2022/12/25 01:18:17;;;;;;;;;;;10.20;99.40;;;;;;5092357;28;19909;-53
2022/12/25 01:20:42;;;;;;;;;;;10.20;99.40;;;;;;5091031;28;19970;-52
2022/12/25 01:23:08;;;;;;;;;;;10.20;99.20;;;;;;5090101;28;19959;-50
2022/12/25 01:25:33;;;;;;;;;;;10.20;99.50;;;;;;5091143;28;19916;-50
2022/12/25 01:27:59;;;;;;;;;;;10.20;99.40;;;;;;5091257;28;19916;-52
2022/12/25 01:30:24;;;;;;;;;;;10.20;99.30;;;;;;5090641;28;19912;-53
2022/12/25 01:32:50;;;;;;;;;;;10.20;98.80;;;;;;5092092;28;19947;-53
2022/12/25 01:35:15;;;;;;;;;;;10.20;99.10;;;;;;5092250;28;19908;-53
2022/12/25 01:37:41;;;;;;;;;;;10.20;99.20;;;;;;5091982;28;19912;-52
2022/12/25 01:40:07;;;;;;;;;;;10.10;99.20;;;;;;5073980;28;20378;-54
2022/12/25 01:42:32;;;;;;;;;;;10.10;99.40;;;;;;5092211;28;20296;-51
2022/12/25 01:45:18;;;;;;;;;;;10.10;99.20;;;;;;5073901;28;19961;-50
2022/12/25 01:47:44;;;;;;;;;;;10.10;99.30;;;;;;5077557;28;19915;-53
2022/12/25 01:50:09;;;;;;;;;;;10.10;99.20;;;;;;5091815;28;19910;-51
2022/12/25 01:52:35;;;;;;;;;;;10.00;99.10;;;;;;5092011;28;19908;-51
2022/12/25 01:55:02;;;;;;;;;;;10.00;99.00;;;;;;5092018;28;19924;-51
2022/12/25 01:57:30;;;;;;;;;;;10.10;99.20;;;;;;5073919;28;20364;-54
2022/12/25 01:59:57;;;;;;;;;;;10.00;99.20;;;;;;5091861;28;19908;-52
2022/12/25 02:02:22;;;;;;;;;;;10.10;99.30;;;;;;5073975;28;19914;-53
2022/12/25 02:05:11;;;;;;;;;;;10.10;99.00;;;;;;5091733;28;19912;-51
2022/12/25 02:07:40;;;;;;;;;;;10.10;99.20;;;;;;5063118;28;19914;-50
2022/12/25 02:10:06;;;;;;;;;;;10.10;99.20;;;;;;5093271;28;19954;-54
2022/12/25 02:12:33;;;;;;;;;;;10.10;99.10;;;;;;5095989;28;20441;-52
2022/12/25 02:15:04;;;;;;;;;;;10.10;98.60;;;;;;5096041;28;19908;-51
2022/12/25 02:17:34;;;;;;;;;;;10.10;98.80;;;;;;5095961;28;19947;-52
2022/12/25 02:20:03;;;;;;;;;;;10.10;98.80;;;;;;5095841;28;19915;-51
2022/12/25 02:22:44;;;;;;;;;;;10.10;98.90;;;;;;5077605;28;19908;-50
2022/12/25 02:25:21;;;;;;;;;;;10.00;98.60;;;;;;5095643;28;19912;-49
2022/12/25 02:28:05;;;;;;;;;;;10.00;98.80;;;;;;5095573;28;19974;-50
2022/12/25 02:30:34;;;;;;;;;;;10.00;98.70;;;;;;5077549;28;19946;-52
2022/12/25 02:35:49;;;;;;;;;;;10.00;98.90;;;;;;5095645;28;19915;-50
2022/12/25 02:38:17;;;;;;;;;;;10.00;98.80;;;;;;5095246;28;19973;-50
2022/12/25 02:40:45;;;;;;;;;;;9.90;98.80;;;;;;5093965;28;19959;-52
2022/12/25 03:08:34;;;;;;;;;;;9.90;98.80;;;;;;5074612;28;19919;-51
2022/12/25 03:13:51;;;;;;;;;;;9.90;98.60;;;;;;5065239;28;19920;-51
2022/12/25 03:26:53;;;;;;;;;;;9.90;98.90;;;;;;5072652;28;20388;-52
2022/12/25 03:27:20;;;;;;;;;;;9.90;98.60;;;;;;5073366;28;19919;-50
2022/12/25 03:32:36;;;;;;;;;;;9.90;98.50;;;;;;5073183;28;19919;-50
2022/12/25 03:35:22;;;;;;;;;;;9.90;98.20;;;;;;5072959;28;20288;-51
2022/12/25 03:42:30;;;;;;;;;;;9.90;98.40;;;;;;5061868;28;19966;-51
2022/12/25 04:36:08;;;;;;;;;;;9.80;98.40;;;;;;5073181;28;19931;-50
2022/12/25 04:38:34;;;;;;;;;;;9.90;98.40;;;;;;5053727;28;19909;-51
2022/12/25 04:41:00;;;;;;;;;;;9.90;98.40;;;;;;5035215;28;19916;-50
2022/12/25 04:43:26;;;;;;;;;;;9.90;98.10;;;;;;5053014;28;20003;-51
2022/12/25 04:45:55;;;;;;;;;;;9.90;98.30;;;;;;5052986;28;20003;-50
2022/12/25 04:48:21;;;;;;;;;;;9.90;98.30;;;;;;5052864;28;20269;-55
2022/12/25 04:50:46;;;;;;;;;;;9.90;98.20;;;;;;5053007;28;19916;-51
2022/12/25 04:53:12;;;;;;;;;;;9.90;98.20;;;;;;5052791;28;20284;-51
2022/12/25 04:55:38;;;;;;;;;;;9.90;98.40;;;;;;5052702;28;19978;-53
2022/12/25 04:58:03;;;;;;;;;;;9.90;98.50;;;;;;5052989;28;19909;-51
2022/12/25 05:00:29;;;;;;;;;;;9.90;98.30;;;;;;5052344;28;19909;-50
2022/12/25 05:02:56;;;;;;;;;;;9.90;98.20;;;;;;5052487;28;19924;-51
2022/12/25 05:05:21;;;;;;;;;;;9.90;98.10;;;;;;5052212;28;19912;-50
2022/12/25 05:07:47;;;;;;;;;;;10.00;98.20;;;;;;5052750;28;19908;-51
2022/12/25 05:10:12;;;;;;;;;;;10.00;98.30;;;;;;5052469;28;19908;-51
2022/12/25 05:12:38;;;;;;;;;;;9.20;98.20;;;;;;5052575;28;19909;-50
2022/12/25 05:15:03;;;;;;;;;;;9.90;98.10;;;;;;5071370;28;20364;-51
2022/12/25 05:17:29;;;;;;;;;;;9.90;98.40;;;;;;5072527;28;20279;-51
2022/12/25 05:19:54;;;;;;;;;;;9.90;98.40;;;;;;5072463;28;19912;-53
2022/12/25 05:22:20;;;;;;;;;;;9.90;98.40;;;;;;5068338;28;19935;-50
2022/12/25 05:24:46;;;;;;;;;;;10.00;98.20;;;;;;5067169;28;19925;-53
2022/12/25 05:27:11;;;;;;;;;;;9.90;98.30;;;;;;5067695;28;19912;-51
2022/12/25 05:29:37;;;;;;;;;;;10.00;98.30;;;;;;5069640;28;19916;-51
2022/12/25 05:32:02;;;;;;;;;;;10.00;98.20;;;;;;5052122;28;19909;-53
2022/12/25 05:34:28;;;;;;;;;;;10.00;97.90;;;;;;5061037;28;19909;-51
2022/12/25 05:36:55;;;;;;;;;;;10.00;98.00;;;;;;5072374;28;19909;-50
2022/12/25 05:39:21;;;;;;;;;;;10.00;98.10;;;;;;5072079;28;19955;-50
2022/12/25 05:41:46;;;;;;;;;;;10.00;98.20;;;;;;5072255;28;19952;-50
2022/12/25 05:44:12;;;;;;;;;;;10.00;97.90;;;;;;5071789;28;20302;-51
2022/12/25 05:46:37;;;;;;;;;;;9.90;98.10;;;;;;5063136;28;19917;-52
2022/12/25 05:49:04;;;;;;;;;;;10.00;98.10;;;;;;5051974;28;19916;-51
2022/12/25 05:51:30;;;;;;;;;;;9.90;98.00;;;;;;5051913;28;19909;-50
2022/12/25 05:53:55;;;;;;;;;;;9.90;97.70;;;;;;5051754;28;19923;-55
2022/12/25 05:56:21;;;;;;;;;;;9.90;98.10;;;;;;5052085;28;19917;-51
2022/12/25 05:58:47;;;;;;;;;;;9.90;98.20;;;;;;5051679;28;19948;-49
2022/12/25 06:01:14;;;;;;;;;;;9.80;98.30;;;;;;5051949;28;20292;-53
2022/12/25 06:03:39;;;;;;;;;;;9.60;98.50;;;;;;5051787;28;19908;-52
2022/12/25 06:06:06;;;;;;;;;;;9.70;98.70;;;;;;5051920;28;19912;-54
2022/12/25 06:08:33;;;;;;;;;;;9.60;98.70;;;;;;5051778;28;19931;-53
2022/12/25 06:11:01;;;;;;;;;;;9.60;98.80;;;;;;5052021;28;19909;-52
2022/12/25 06:13:26;;;;;;;;;;;9.50;98.80;;;;;;5051968;28;19999;-50
2022/12/25 06:15:52;;;;;;;;;;;9.50;99.00;;;;;;5051705;28;20401;-52
2022/12/25 06:18:17;;;;;;;;;;;9.50;98.90;;;;;;5051601;28;19908;-50
2022/12/25 06:20:43;;;;;;;;;;;9.60;98.90;;;;;;5051835;28;19944;-51
2022/12/25 06:23:08;;;;;;;;;;;9.50;99.00;;;;;;5060203;28;19908;-52
2022/12/25 06:25:37;;;;;;;;;;;9.50;99.00;;;;;;5071625;28;19956;-49
2022/12/25 06:28:02;;;;;;;;;;;9.60;99.10;;;;;;5053808;28;19909;-51
2022/12/25 06:30:28;;;;;;;;;;;9.60;99.00;;;;;;5067015;28;20419;-50
2022/12/25 06:32:53;;;;;;;;;;;9.60;99.10;;;;;;5066218;28;20533;-49
2022/12/25 06:35:19;;;;;;;;;;;9.60;98.90;;;;;;5068206;28;19912;-51
2022/12/25 06:37:45;;;;;;;;;;;9.60;99.10;;;;;;5063465;28;19965;-50
2022/12/25 06:40:11;;;;;;;;;;;9.60;99.30;;;;;;5050239;28;20284;-49
2022/12/25 06:42:37;;;;;;;;;;;9.60;99.40;;;;;;5066551;28;19908;-49
2022/12/25 06:45:03;;;;;;;;;;;9.70;99.10;;;;;;5071471;28;19919;-52
2022/12/25 06:47:29;;;;;;;;;;;9.80;99.00;;;;;;5053649;28;19920;-54
2022/12/25 06:49:54;;;;;;;;;;;9.80;99.10;;;;;;5071459;28;20257;-52
2022/12/25 06:52:20;;;;;;;;;;;9.80;99.00;;;;;;5071477;28;19909;-53
2022/12/25 06:54:46;;;;;;;;;;;9.80;98.70;;;;;;5056870;28;19917;-50
2022/12/25 06:57:11;;;;;;;;;;;9.80;98.90;;;;;;5053079;28;19936;-50
2022/12/25 06:59:37;;;;;;;;;;;9.80;98.90;;;;;;5054929;28;19909;-49
2022/12/25 07:02:02;;;;;;;;;;;9.80;98.90;;;;;;5037178;28;20011;-54
2022/12/25 07:04:39;;;;;;;;;;;9.70;98.70;;;;;;5054965;28;19916;-56
2022/12/25 07:07:05;;;;;;;;;;;9.70;99.00;;;;;;5054998;28;19919;-57
2022/12/25 07:09:31;;;;;;;;;;;9.60;99.00;;;;;;5054755;28;19948;-52
2022/12/25 07:12:11;;;;;;;;;;;9.60;99.20;;;;;;5060555;28;19955;-54
2022/12/25 07:14:37;;;;;;;;;;;9.60;99.40;;;;;;5055639;28;19916;-54
2022/12/25 07:17:02;;;;;;;;;;;9.60;99.50;;;;;;5070603;28;19999;-57
2022/12/25 07:19:28;;;;;;;;;;;9.70;99.20;;;;;;5065562;28;20323;-52
2022/12/25 07:21:53;;;;;;;;;;;9.70;99.10;;;;;;5072926;28;19952;-54
2022/12/25 07:24:19;;;;;;;;;;;9.80;99.00;;;;;;5070199;28;19913;-52
2022/12/25 07:26:45;;;;;;;;;;;9.90;98.90;;;;;;5066753;28;20349;-53
2022/12/25 07:29:10;;;;;;;;;;;7.20;97.90;;;;;;5066467;28;19996;-50
2022/12/25 07:31:36;;;;;;;;;;;9.90;98.70;;;;;;5072702;28;19923;-53
2022/12/25 07:34:02;;;;;;;;;;;9.90;98.60;;;;;;5073398;28;19913;-57
2022/12/25 07:36:28;;;;;;;;;;;9.90;98.80;;;;;;5074402;28;20003;-53
2022/12/25 07:38:53;;;;;;;;;;;10.00;98.60;;;;;;5060184;28;19913;-53
2022/12/25 07:41:19;;;;;;;;;;;9.90;98.50;;;;;;5073088;28;20393;-55
2022/12/25 07:43:47;;;;;;;;;;;10.00;98.20;;;;;;5064406;28;19916;-51
2022/12/25 07:46:13;;;;;;;;;;;10.00;98.40;;;;;;5068696;28;19940;-53
2022/12/25 07:48:38;;;;;;;;;;;10.00;98.20;;;;;;5055444;28;20368;-50
2022/12/25 07:51:05;;;;;;;;;;;10.00;98.00;;;;;;5072878;28;20377;-53
2022/12/25 07:53:31;;;;;;;;;;;10.00;98.00;;;;;;5068955;28;20344;-49
2022/12/25 07:56:00;;;;;;;;;;;10.00;98.10;;;;;;5061407;28;19952;-50
2022/12/25 07:58:26;;;;;;;;;;;10.00;98.00;;;;;;5062719;28;19962;-51
2022/12/25 08:00:52;;;;;;;;;;;10.00;98.10;;;;;;5044552;28;20335;-50
2022/12/25 08:03:17;;;;;;;;;;;10.10;98.30;;;;;;5072051;28;19934;-52
2022/12/25 08:05:44;;;;;;;;;;;10.10;98.30;;;;;;5073559;28;19917;-49
2022/12/25 08:08:09;;;;;;;;;;;10.10;98.30;;;;;;5073165;28;19967;-49
2022/12/25 08:10:35;;;;;;;;;;;10.10;98.20;;;;;;5072518;28;20376;-50
2022/12/25 08:13:00;;;;;;;;;;;10.10;97.90;;;;;;5070386;28;19981;-53
2022/12/25 08:15:26;;;;;;;;;;;10.10;98.00;;;;;;5068680;28;19916;-49
2022/12/25 08:17:51;;;;;;;;;;;10.10;97.70;;;;;;5067087;28;19919;-53
2022/12/25 08:20:17;;;;;;;;;;;10.20;97.70;;;;;;5063526;28;19909;-50
2022/12/25 08:22:42;;;;;;;;;;;10.20;97.80;;;;;;5073534;28;19920;-50
2022/12/25 08:25:08;;;;;;;;;;;10.20;97.40;;;;;;5059977;28;19913;-52
2022/12/25 08:27:34;;;;;;;;;;;10.20;97.40;;;;;;5065955;28;20007;-54
2022/12/25 08:29:59;;;;;;;;;;;10.30;97.60;;;;;;5057554;28;20007;-52
2022/12/25 08:32:25;;;;;;;;;;;10.30;97.60;;;;;;5070846;28;20276;-54
2022/12/25 08:34:50;;;;;;;;;;;10.30;97.40;;;;;;5071955;28;19991;-52
2022/12/25 08:37:16;;;;;;;;;;;10.30;97.30;;;;;;5062150;28;19940;-51
2022/12/25 08:39:41;;;;;;;;;;;10.30;97.30;;;;;;5072722;28;19913;-53
2022/12/25 08:42:07;;;;;;;;;;;10.40;97.10;;;;;;5072320;28;19999;-52
2022/12/25 08:44:33;;;;;;;;;;;10.40;96.90;;;;;;5070624;28;19916;-51
2022/12/25 08:46:58;;;;;;;;;;;10.40;97.20;;;;;;5036515;28;20305;-54
2022/12/25 08:49:26;;;;;;;;;;;10.40;97.20;;;;;;5070539;28;19912;-53
2022/12/25 08:51:51;;;;;;;;;;;10.40;97.00;;;;;;5066553;28;19917;-52
2022/12/25 08:54:17;;;;;;;;;;;10.40;97.20;;;;;;5057547;28;19967;-53
2022/12/25 08:56:42;;;;;;;;;;;10.40;96.80;;;;;;5060074;28;19917;-52
2022/12/25 08:59:08;;;;;;;;;;;10.30;97.10;;;;;;5072172;28;20373;-51
2022/12/25 09:01:34;;;;;;;;;;;10.40;97.00;;;;;;5062870;28;19917;-50
2022/12/25 09:03:59;;;;;;;;;;;10.40;96.50;;;;;;5064095;28;19912;-52
2022/12/25 09:06:25;;;;;;;;;;;10.40;96.80;;;;;;5069029;28;19989;-53
2022/12/25 09:08:50;;;;;;;;;;;10.40;96.70;;;;;;5044409;28;19912;-51
2022/12/25 09:11:17;;;;;;;;;;;10.40;96.60;;;;;;5067722;28;20007;-51
2022/12/25 09:13:42;;;;;;;;;;;10.40;96.50;;;;;;5069634;28;19934;-51
2022/12/25 09:16:09;;;;;;;;;;;10.50;96.50;;;;;;5053554;28;19913;-54
2022/12/25 09:18:35;;;;;;;;;;;10.50;96.40;;;;;;5060994;28;19960;-50
2022/12/25 09:21:02;;;;;;;;;;;10.50;96.40;;;;;;5053232;28;19947;-53
2022/12/25 09:23:28;;;;;;;;;;;10.60;96.20;;;;;;5069603;28;19915;-50
2022/12/25 09:25:53;;;;;;;;;;;10.60;96.20;;;;;;5071539;28;19912;-51
2022/12/25 09:28:20;;;;;;;;;;;10.60;96.00;;;;;;5071344;28;20415;-50
2022/12/25 09:30:48;;;;;;;;;;;10.70;96.10;;;;;;5071542;28;19908;-51
2022/12/25 09:33:14;;;;;;;;;;;10.70;95.80;;;;;;5070901;28;19912;-50
2022/12/25 09:35:39;;;;;;;;;;;10.70;96.10;;;;;;5071499;28;19962;-51
2022/12/25 09:38:05;;;;;;;;;;;10.80;95.00;;;;;;5071642;28;19927;-53
2022/12/25 09:40:31;;;;;;;;;;;10.70;95.80;;;;;;5072433;28;19909;-55
2022/12/25 09:42:57;;;;;;;;;;;10.80;96.00;;;;;;5072222;28;19915;-53
2022/12/25 09:45:32;;;;;;;;;;;10.80;95.70;;;;;;5071975;28;19916;-53
2022/12/25 09:47:58;;;;;;;;;;;10.90;95.70;;;;;;5054148;28;19999;-51
2022/12/25 09:50:42;;;;;;;;;;;10.90;95.40;;;;;;5071987;28;20004;-50
2022/12/25 09:53:24;;;;;;;;;;;10.90;95.80;;;;;;5072232;28;19915;-55
2022/12/25 09:56:09;;;;;;;;;;;10.90;96.10;;;;;;5072024;28;20407;-51
2022/12/25 09:58:34;;;;;;;;;;;11.00;95.40;;;;;;5071889;28;19909;-52
2022/12/25 10:01:03;;;;;;;;;;;11.00;95.00;;;;;;5072153;28;19935;-51
2022/12/25 10:03:42;;;;;;;;;;;10.90;94.80;;;;;;5072146;28;20369;-51
2022/12/25 10:06:17;;;;;;;;;;;10.90;95.00;;;;;;5054112;28;19913;-52
2022/12/25 10:08:46;;;;;;;;;;;10.90;95.00;;;;;;5071320;28;19909;-54
2022/12/25 10:11:12;;;;;;;;;;;10.90;95.20;;;;;;5071899;28;19912;-51
2022/12/25 10:13:52;;;;;;;;;;;10.90;95.20;;;;;;5071942;28;20292;-50
2022/12/25 10:16:17;;;;;;;;;;;10.90;95.20;;;;;;5070504;28;19915;-52
2022/12/25 10:18:46;;;;;;;;;;;10.90;95.10;;;;;;5059229;28;20331;-51
2022/12/25 10:21:13;;;;;;;;;;;10.90;95.60;;;;;;5062355;28;20336;-52
2022/12/25 10:23:43;;;;;;;;;;;11.00;94.90;;;;;;5067742;28;19917;-54
2022/12/25 10:26:17;;;;;;;;;;;10.90;95.30;;;;;;5039187;28;20308;-51
2022/12/25 10:28:58;;;;;;;;;;;10.90;95.40;;;;;;5063226;28;19916;-50
2022/12/25 10:31:28;;;;;;;;;;;10.90;95.50;;;;;;5070902;28;20091;-52
2022/12/25 10:33:53;;;;;;;;;;;10.90;95.30;;;;;;5062084;28;19908;-54
2022/12/25 10:36:21;;;;;;;;;;;10.90;95.40;;;;;;5038301;28;19913;-53
2022/12/25 10:38:46;;;;;;;;;;;11.00;95.60;;;;;;5065347;28;19909;-49
2022/12/25 10:41:18;;;;;;;;;;;11.00;95.70;;;;;;5072826;28;20003;-50
2022/12/25 10:43:54;;;;;;;;;;;11.10;95.30;;;;;;5046106;28;19913;-49
2022/12/25 10:46:21;;;;;;;;;;;11.10;95.50;;;;;;5071152;28;20392;-50
2022/12/25 10:48:51;;;;;;;;;;;11.10;95.30;;;;;;5070294;28;19915;-54
2022/12/25 10:51:29;;;;;;;;;;;11.20;95.20;;;;;;5073417;28;20277;-51
2022/12/25 10:53:55;;;;;;;;;;;11.20;95.10;;;;;;5074291;28;20173;-53
2022/12/25 10:56:20;;;;;;;;;;;11.30;95.00;;;;;;5061232;28;19913;-55
2022/12/25 10:58:46;;;;;;;;;;;11.30;94.90;;;;;;5057816;28;20357;-55
2022/12/25 11:01:12;;;;;;;;;;;11.40;94.50;;;;;;5070125;28;19909;-53
2022/12/25 11:03:38;;;;;;;;;;;11.40;94.60;;;;;;5073700;28;19913;-54
2022/12/25 11:06:05;;;;;;;;;;;11.50;94.20;;;;;;5073431;28;19921;-51
2022/12/25 11:08:33;;;;;;;;;;;11.50;94.10;;;;;;5074574;28;20373;-51
2022/12/25 11:11:04;;;;;;;;;;;11.60;92.50;;;;;;5074740;28;19953;-51
2022/12/25 11:13:32;;;;;;;;;;;11.50;93.20;;;;;;5062466;28;19913;-51
2022/12/25 11:16:09;;;;;;;;;;;11.50;93.40;;;;;;5045269;28;19947;-51
2022/12/25 11:18:48;;;;;;;;;;;11.40;93.70;;;;;;5066704;28;20510;-54
2022/12/25 11:21:17;;;;;;;;;;;11.50;94.10;;;;;;5055098;28;19920;-51
2022/12/25 11:23:44;;;;;;;;;;;11.70;93.30;;;;;;5041476;28;19957;-52
2022/12/25 11:26:10;;;;;;;;;;;11.70;93.50;;;;;;5069538;28;19917;-53
2022/12/25 11:28:36;;;;;;;;;;;11.80;93.90;;;;;;5065922;28;19991;-50
2022/12/25 11:31:02;;;;;;;;;;;11.80;93.70;;;;;;5073550;28;20365;-52
2022/12/25 11:33:30;;;;;;;;;;;12.00;93.20;;;;;;5073627;28;19987;-52
2022/12/25 11:35:58;;;;;;;;;;;12.00;93.60;;;;;;5060105;28;19920;-50
2022/12/25 11:38:24;;;;;;;;;;;12.00;93.30;;;;;;5061856;28;20397;-51
2022/12/25 11:40:57;;;;;;;;;;;12.10;93.30;;;;;;5067691;28;19920;-51
2022/12/25 11:43:31;;;;;;;;;;;12.10;92.80;;;;;;5062471;28;20000;-52
2022/12/25 11:46:14;;;;;;;;;;;12.10;93.10;;;;;;5069025;28;20019;-52
2022/12/25 11:48:42;;;;;;;;;;;12.10;93.30;;;;;;5068505;28;19920;-53
2022/12/25 11:51:08;;;;;;;;;;;12.10;93.30;;;;;;5069813;28;19913;-51
2022/12/25 11:53:40;;;;;;;;;;;12.10;92.90;;;;;;5070221;28;20546;-50
2022/12/25 11:56:10;;;;;;;;;;;12.10;93.10;;;;;;5072075;28;19921;-51
2022/12/25 11:58:40;;;;;;;;;;;12.10;93.00;;;;;;5064085;28;19917;-52
2022/12/25 12:01:14;;;;;;;;;;;12.10;93.30;;;;;;5060700;28;19955;-52
2022/12/25 12:03:40;;;;;;;;;;;12.00;93.40;;;;;;5051874;28;19922;-56
2022/12/25 12:06:12;;;;;;;;;;;12.00;93.70;;;;;;5073687;28;20057;-52
2022/12/25 12:08:38;;;;;;;;;;;11.90;93.60;;;;;;5072550;28;19966;-53
2022/12/25 12:11:14;;;;;;;;;;;12.00;93.80;;;;;;5073788;28;19912;-52
2022/12/25 12:13:43;;;;;;;;;;;12.00;93.10;;;;;;5071914;28;19990;-53
2022/12/25 12:16:08;;;;;;;;;;;12.00;93.50;;;;;;5055519;28;19919;-53
2022/12/25 12:18:35;;;;;;;;;;;11.90;93.40;;;;;;5068857;28;19913;-54
2022/12/25 12:21:00;;;;;;;;;;;11.90;93.50;;;;;;5072703;28;20007;-56
2022/12/25 12:23:27;;;;;;;;;;;11.90;93.60;;;;;;5072544;28;19999;-53
2022/12/25 12:25:53;;;;;;;;;;;11.90;93.80;;;;;;5071292;28;20513;-51
2022/12/25 12:28:23;;;;;;;;;;;11.90;93.90;;;;;;5071822;28;19948;-53
2022/12/25 12:30:57;;;;;;;;;;;11.80;93.70;;;;;;5062914;28;19927;-52
2022/12/25 12:33:26;;;;;;;;;;;11.90;93.50;;;;;;5066520;28;19956;-55
2022/12/25 12:35:52;;;;;;;;;;;11.80;94.10;;;;;;5069966;28;19912;-53
2022/12/25 12:38:18;;;;;;;;;;;11.90;93.80;;;;;;5071053;28;20027;-53
2022/12/25 12:41:17;;;;;;;;;;;11.90;94.00;;;;;;5071807;28;19927;-52
2022/12/25 12:43:51;;;;;;;;;;;11.90;93.90;;;;;;5009808;28;19920;-53
2022/12/25 12:46:17;;;;;;;;;;;11.90;94.00;;;;;;5071835;28;19916;-52
2022/12/25 12:48:44;;;;;;;;;;;11.90;93.90;;;;;;5076317;28;19916;-52
2022/12/25 12:51:28;;;;;;;;;;;11.90;93.80;;;;;;5071815;28;19913;-52
2022/12/25 12:54:26;;;;;;;;;;;11.90;94.10;;;;;;5051325;28;19916;-53
2022/12/25 12:56:55;;;;;;;;;;;11.90;94.10;;;;;;5049178;28;19946;-54
2022/12/25 12:59:21;;;;;;;;;;;12.00;94.00;;;;;;5063348;28;19919;-51
2022/12/25 13:01:52;;;;;;;;;;;12.00;94.10;;;;;;5064567;28;19917;-52
2022/12/25 13:04:36;;;;;;;;;;;11.80;93.70;;;;;;5072643;28;19912;-54
2022/12/25 13:07:11;;;;;;;;;;;11.80;94.10;;;;;;5053459;28;20349;-54
2022/12/25 13:09:51;;;;;;;;;;;11.90;94.40;;;;;;5065460;28;20292;-51
2022/12/25 13:12:18;;;;;;;;;;;11.90;94.10;;;;;;5069329;28;19912;-52
2022/12/25 13:14:48;;;;;;;;;;;11.90;94.30;;;;;;5064402;28;19912;-52
2022/12/25 13:17:17;;;;;;;;;;;11.90;94.20;;;;;;5072261;28;19916;-52
2022/12/25 13:19:43;;;;;;;;;;;11.90;94.30;;;;;;5051042;28;19916;-52
2022/12/25 13:22:20;;;;;;;;;;;12.00;94.30;;;;;;5064981;28;19916;-51
2022/12/25 13:24:53;;;;;;;;;;;11.90;94.00;;;;;;5071031;28;19942;-52
2022/12/25 13:27:20;;;;;;;;;;;11.90;94.20;;;;;;5052858;28;19923;-51
2022/12/25 13:29:46;;;;;;;;;;;11.80;94.20;;;;;;5064146;28;20346;-54
2022/12/25 13:32:23;;;;;;;;;;;11.80;94.50;;;;;;5072140;28;19912;-52
2022/12/25 13:34:48;;;;;;;;;;;11.80;94.80;;;;;;5066977;28;19913;-51
2022/12/25 13:37:15;;;;;;;;;;;11.80;94.70;;;;;;5064727;28;19919;-52
2022/12/25 13:40:00;;;;;;;;;;;11.90;94.80;;;;;;5071415;28;19913;-55
2022/12/25 13:42:36;;;;;;;;;;;11.90;94.50;;;;;;5072203;28;19912;-52
2022/12/25 13:45:06;;;;;;;;;;;11.80;94.30;;;;;;5065048;28;19924;-52
2022/12/25 13:47:38;;;;;;;;;;;11.80;94.70;;;;;;5060438;28;19938;-56
2022/12/25 13:50:13;;;;;;;;;;;11.80;94.70;;;;;;5067775;28;20497;-50
2022/12/25 13:52:39;;;;;;;;;;;11.80;94.80;;;;;;5066194;28;19966;-54
2022/12/25 13:55:14;;;;;;;;;;;11.80;94.60;;;;;;5071624;28;19917;-52
2022/12/25 13:57:44;;;;;;;;;;;11.70;94.90;;;;;;5071856;28;19920;-51
2022/12/25 14:00:36;;;;;;;;;;;11.80;95.10;;;;;;5070648;28;19909;-56
2022/12/25 14:03:03;;;;;;;;;;;11.70;95.00;;;;;;5049179;28;19920;-54
2022/12/25 14:05:31;;;;;;;;;;;11.70;94.80;;;;;;5069989;28;19923;-53
2022/12/25 14:07:59;;;;;;;;;;;11.70;94.90;;;;;;5075818;28;19909;-51
2022/12/25 14:10:29;;;;;;;;;;;11.70;95.30;;;;;;5073604;28;20022;-53
2022/12/25 14:12:55;;;;;;;;;;;11.60;95.30;;;;;;5069697;28;20315;-52
2022/12/25 14:15:21;;;;;;;;;;;11.60;95.30;;;;;;5057483;28;19908;-52
2022/12/25 14:17:48;;;;;;;;;;;11.60;95.60;;;;;;5075798;28;19916;-52
2022/12/25 14:20:31;;;;;;;;;;;11.50;95.80;;;;;;5074211;28;19913;-52
2022/12/25 14:23:00;;;;;;;;;;;11.50;95.90;;;;;;5067564;28;19936;-52
2022/12/25 14:25:28;;;;;;;;;;;11.50;95.90;;;;;;5057370;28;19969;-55
2022/12/25 14:27:54;;;;;;;;;;;11.50;96.20;;;;;;5075423;28;20450;-51
2022/12/25 14:30:20;;;;;;;;;;;11.50;96.10;;;;;;5074460;28;19920;-53
2022/12/25 14:32:49;;;;;;;;;;;11.60;96.10;;;;;;5070379;28;19921;-52
2022/12/25 14:35:15;;;;;;;;;;;11.60;96.10;;;;;;5070547;28;19971;-51
2022/12/25 14:37:41;;;;;;;;;;;11.60;96.30;;;;;;5062293;28;19966;-51
2022/12/25 14:40:21;;;;;;;;;;;11.60;96.20;;;;;;5067675;28;19919;-53
2022/12/25 14:42:54;;;;;;;;;;;11.60;96.20;;;;;;5067246;28;19913;-53
2022/12/25 14:45:25;;;;;;;;;;;11.60;96.10;;;;;;5057348;28;19920;-55
2022/12/25 14:47:52;;;;;;;;;;;11.60;96.40;;;;;;5065461;28;19920;-55
2022/12/25 14:50:44;;;;;;;;;;;11.60;96.60;;;;;;5059374;28;19919;-54
2022/12/25 14:53:18;;;;;;;;;;;11.60;96.40;;;;;;5063310;28;19917;-55
2022/12/25 14:55:49;;;;;;;;;;;11.60;96.20;;;;;;5084634;22;20031;-59
2022/12/25 14:58:25;;;;;;;;;;;11.70;96.40;;;;;;5036827;28;19909;-57
2022/12/25 15:00:55;;;;;;;;;;;11.60;96.60;;;;;;5044362;28;19966;-54
2022/12/25 15:03:32;;;;;;;;;;;11.60;96.70;;;;;;5066031;28;20398;-56
2022/12/25 15:06:01;;;;;;;;;;;11.50;96.80;;;;;;5054675;28;19920;-58
2022/12/25 15:08:27;;;;;;;;;;;11.50;97.00;;;;;;5071688;28;19916;-59
2022/12/25 15:10:54;;;;;;;;;;;11.50;97.00;;;;;;5074944;28;20421;-58
2022/12/25 15:13:19;;;;;;;;;;;11.40;97.10;;;;;;5074086;28;19954;-57
2022/12/25 15:15:51;;;;;;;;;;;11.40;96.90;;;;;;5074145;28;19960;-57
2022/12/25 15:18:17;;;;;;;;;;;11.50;97.10;;;;;;5072277;28;20380;-53
2022/12/25 15:20:43;;;;;;;;;;;11.50;97.00;;;;;;5056452;28;19954;-57
2022/12/25 15:23:12;;;;;;;;;;;11.50;97.00;;;;;;5074517;28;19912;-58
2022/12/25 15:25:37;;;;;;;;;;;11.40;96.90;;;;;;5056548;28;19919;-59
2022/12/25 15:28:05;;;;;;;;;;;11.40;97.30;;;;;;5073462;28;20116;-59
2022/12/25 15:30:34;;;;;;;;;;;11.40;97.40;;;;;;5074220;28;19912;-55
2022/12/25 15:32:59;;;;;;;;;;;11.30;97.60;;;;;;5074122;28;19908;-57
2022/12/25 15:35:25;;;;;;;;;;;11.30;97.50;;;;;;5074238;28;19999;-55
2022/12/25 15:37:51;;;;;;;;;;;11.30;97.70;;;;;;5056398;28;19908;-59
2022/12/25 15:40:16;;;;;;;;;;;11.30;97.80;;;;;;5073989;28;19912;-59
2022/12/25 15:42:42;;;;;;;;;;;11.30;97.90;;;;;;5055844;28;19960;-57
2022/12/25 15:45:21;;;;;;;;;;;11.30;97.70;;;;;;5073833;28;20401;-56
2022/12/25 15:47:48;;;;;;;;;;;11.20;98.00;;;;;;5056107;28;19912;-57
2022/12/25 15:50:14;;;;;;;;;;;11.20;98.20;;;;;;5055684;28;19916;-56
2022/12/25 15:52:40;;;;;;;;;;;11.20;98.20;;;;;;5073824;28;19913;-53
2022/12/25 15:55:06;;;;;;;;;;;11.10;98.10;;;;;;5073845;28;19916;-56
2022/12/25 15:57:32;;;;;;;;;;;11.10;98.40;;;;;;5056251;28;19908;-53
2022/12/25 15:59:58;;;;;;;;;;;11.10;98.60;;;;;;5073796;28;19908;-58
2022/12/25 16:02:24;;;;;;;;;;;11.10;98.60;;;;;;5073755;28;19958;-57